INFORMAÇÕES METEOROLÓGICAS
METAR FOR SBCH
ADDS - METARS form results

(0150 UTC 25 April 2019)
Data provider http://aviationweather.gov/metar/data/
 
METAR text: SBCH 250100Z 10011KT CAVOK 22/20 Q1019
Conditions at: SBCH (CHAPECO , BR) observed 0100 UTC 25 April 2019
Temperature: 22.0°C (72°F)
Dewpoint: 20.0°C (68°F) [RH = 88%]
Pressure (altimeter): 30.09 inches Hg (1019.0 mb)
Winds: from the E (100 degrees) at 13 MPH (11 knots; 5.7 m/s)
Visibility: 6 or more miles (10+ km)
Ceiling: ceiling and visibility are OK
Clouds: unknown
Weather: no significant weather observed at this time

 MAPA DO AEROPORTO

 INFORMAÇÕES DA PISTA
Pista 11 Tamanho da pista 6768 ft Largura da pista 148 ft
Elevação da pista 0 ft Ranhura da pista 0 ft Proa da pista 0
Pista 29 Tamanho da pista 6768 ft Largura da pista 148 ft
Elevação da pista 0 ft Ranhura da pista 0 ft Proa da pista 0

 FREQUÊNCIAS DO AEROPORTO
Tipo AFIS Nome RDO Frequência 130.85 MHZ

 AUXÍLIOS DE NAVEGAÇÃO PRÓXIMOS AO AEROPORTO
Tipo VOR-DME Nome Chapeco Frequência 116100 KHZ
Tipo NDB Nome Chapeco Frequência 173 KHZ





Powered by Virtual Airlines Manager [v2.6.2]